Time;durP1;ratioP1;P1;durP2;ratioP2;P2;SDS_P1;SDS_P2;PMS_P1;PMS_P2;Temp;Humidity;BMP_temperature;BMP_pressure;BME280_temperature;BME280_humidity;BME280_pressure;Samples;Min_cycle;Max_cycle;Signal;HPM_P1;HPM_P2
2023/01/16 05:30:57;;;;;;;4.90;2.03;;;-0.20;99.90;;;;;;7586847;19;20929;-72
2023/01/16 05:33:30;;;;;;;4.00;2.70;;;-0.30;99.90;;;;;;7610351;19;20018;-72
2023/01/16 05:36:03;;;;;;;4.65;1.90;;;-0.30;99.90;;;;;;7577315;19;20019;-71
2023/01/16 05:38:35;;;;;;;2.97;2.15;;;-0.20;99.90;;;;;;7607473;19;20031;-73
2023/01/16 05:41:08;;;;;;;2.67;1.90;;;-0.20;99.90;;;;;;7583972;19;20014;-70
2023/01/16 05:43:40;;;;;;;2.33;1.70;;;-0.10;99.90;;;;;;7597595;19;20014;-71
2023/01/16 05:46:12;;;;;;;2.35;1.83;;;-0.10;99.90;;;;;;7591583;19;20022;-70
2023/01/16 05:48:45;;;;;;;2.77;1.77;;;0.10;99.90;;;;;;7601089;19;20517;-71
2023/01/16 05:51:17;;;;;;;2.47;1.65;;;0.20;99.90;;;;;;7587253;19;20010;-72
2023/01/16 05:53:50;;;;;;;1.60;1.40;;;0.20;99.90;;;;;;7607075;19;20094;-72
2023/01/16 05:56:23;;;;;;;3.95;1.60;;;0.20;99.90;;;;;;7595451;19;20056;-73
2023/01/16 05:58:57;;;;;;;2.13;1.40;;;0.20;99.90;;;;;;7564081;19;20011;-71
2023/01/16 06:01:29;;;;;;;2.60;1.77;;;0.20;99.90;;;;;;7587668;19;20731;-74
2023/01/16 06:04:01;;;;;;;4.65;1.50;;;0.20;99.90;;;;;;7584449;19;20029;-71
2023/01/16 06:06:33;;;;;;;3.60;2.10;;;0.20;99.90;;;;;;7585109;19;20029;-71
2023/01/16 06:09:05;;;;;;;3.45;1.83;;;0.20;99.90;;;;;;7601539;19;20021;-73
2023/01/16 06:11:38;;;;;;;3.63;2.20;;;0.30;99.90;;;;;;7590148;19;20569;-71
2023/01/16 06:14:10;;;;;;;2.85;2.20;;;0.30;99.90;;;;;;7611100;19;20530;-72
2023/01/16 06:16:42;;;;;;;4.20;2.28;;;0.20;99.90;;;;;;7601223;19;20097;-72
2023/01/16 06:19:14;;;;;;;3.72;2.75;;;0.30;99.90;;;;;;7580597;19;20105;-70
2023/01/16 06:21:46;;;;;;;4.60;2.80;;;0.20;99.90;;;;;;7560276;19;20006;-72
2023/01/16 06:24:18;;;;;;;3.90;2.65;;;0.30;99.90;;;;;;7574006;19;21057;-72
2023/01/16 06:26:50;;;;;;;8.20;3.63;;;0.30;99.90;;;;;;7566091;19;20644;-72
2023/01/16 06:29:23;;;;;;;5.05;3.28;;;0.30;99.90;;;;;;7608418;19;20018;-71
2023/01/16 06:31:55;;;;;;;5.60;2.28;;;0.20;99.90;;;;;;7594336;19;20590;-70
2023/01/16 06:35:18;;;;;;;4.15;2.53;;;0.20;99.90;;;;;;7609592;19;21187;-71
2023/01/16 06:37:51;;;;;;;3.40;2.67;;;0.20;99.90;;;;;;7591764;19;20307;-71
2023/01/16 06:40:23;;;;;;;8.60;3.72;;;0.20;99.90;;;;;;7642137;19;20052;-71
2023/01/16 06:42:55;;;;;;;12.65;5.95;;;0.10;99.90;;;;;;7639842;19;20033;-71
2023/01/16 06:45:27;;;;;;;10.05;5.68;;;0.10;99.90;;;;;;7645361;19;20028;-71
2023/01/16 06:47:59;;;;;;;11.48;6.68;;;0.00;99.90;;;;;;7637036;19;20010;-72
2023/01/16 06:50:31;;;;;;;6.80;4.18;;;0.00;99.90;;;;;;7642499;19;20014;-72
2023/01/16 06:53:03;;;;;;;6.65;3.80;;;0.00;99.90;;;;;;7641072;19;20010;-71
2023/01/16 06:55:36;;;;;;;4.28;2.78;;;-0.10;99.90;;;;;;7644883;19;20026;-72
2023/01/16 06:58:08;;;;;;;2.83;1.77;;;-0.10;99.90;;;;;;7636272;19;20025;-71
2023/01/16 07:00:41;;;;;;;3.40;2.10;;;0.00;99.90;;;;;;7618305;19;20025;-72
2023/01/16 07:03:13;;;;;;;3.83;1.55;;;-0.10;99.90;;;;;;7639419;19;20098;-70
2023/01/16 07:05:46;;;;;;;2.22;1.52;;;-0.10;99.90;;;;;;7628271;19;20022;-70
2023/01/16 07:08:19;;;;;;;2.88;1.50;;;-0.10;99.90;;;;;;7619883;19;20379;-71
2023/01/16 07:10:51;;;;;;;2.67;1.58;;;-0.10;99.90;;;;;;7627846;19;20024;-70
